createdAt,value
2022-12-18T00:01:22.047Z,-3.99
2022-12-18T00:03:49.192Z,-3.96
2022-12-18T00:06:16.677Z,-3.93
2022-12-18T00:08:43.548Z,-4.03
2022-12-18T00:11:13.668Z,-4.08
2022-12-18T00:13:40.951Z,-4.08
2022-12-18T00:16:10.327Z,-4.00
2022-12-18T00:18:37.343Z,-4.06
2022-12-18T00:21:07.256Z,-4.17
2022-12-18T00:23:35.713Z,-4.08
2022-12-18T00:26:03.778Z,-4.03
2022-12-18T00:28:30.192Z,-4.05
2022-12-18T00:31:08.401Z,-4.07
2022-12-18T00:33:36.212Z,-4.07
2022-12-18T00:36:05.490Z,-4.13
2022-12-18T00:38:31.926Z,-4.12
2022-12-18T00:40:58.329Z,-4.04
2022-12-18T00:43:24.735Z,-4.11
2022-12-18T00:45:51.430Z,-4.08
2022-12-18T00:48:17.931Z,-4.03
2022-12-18T00:50:44.348Z,-4.00
2022-12-18T00:53:11.066Z,-4.10
2022-12-18T00:55:41.432Z,-4.08
2022-12-18T00:58:08.748Z,-4.14
2022-12-18T01:00:36.019Z,-4.11
2022-12-18T01:03:03.068Z,-4.08
2022-12-18T01:05:29.523Z,-4.09
2022-12-18T01:07:58.133Z,-4.08
2022-12-18T01:10:24.735Z,-4.07
2022-12-18T01:12:51.273Z,-4.04
2022-12-18T01:15:18.382Z,-4.06
2022-12-18T01:17:44.981Z,-4.05
2022-12-18T01:20:12.996Z,-4.10
2022-12-18T01:22:39.554Z,-4.03
2022-12-18T01:25:06.527Z,-4.10
2022-12-18T01:27:34.880Z,-4.20
2022-12-18T01:30:01.283Z,-4.27
2022-12-18T01:32:31.377Z,-4.31
2022-12-18T01:34:57.855Z,-4.26
2022-12-18T01:37:24.347Z,-4.26
2022-12-18T01:39:50.897Z,-4.24
2022-12-18T01:42:17.618Z,-4.27
2022-12-18T01:45:02.621Z,-4.19
2022-12-18T01:47:54.418Z,-4.20
2022-12-18T01:50:37.235Z,-4.17
2022-12-18T01:53:08.339Z,-4.22
2022-12-18T01:55:43.178Z,-4.17
2022-12-18T01:58:11.078Z,-4.17
2022-12-18T02:00:37.532Z,-4.23
2022-12-18T02:03:04.233Z,-4.23
2022-12-18T02:05:49.802Z,-4.26
2022-12-18T02:08:34.761Z,-4.23
2022-12-18T02:11:33.850Z,-4.27
2022-12-18T02:14:35.858Z,-4.26
2022-12-18T02:17:08.619Z,-4.18
2022-12-18T02:20:07.521Z,-4.11
2022-12-18T02:22:42.886Z,-4.15
2022-12-18T02:25:12.113Z,-4.28
2022-12-18T02:27:40.203Z,-4.29
2022-12-18T02:30:08.308Z,-4.35
2022-12-18T02:32:40.757Z,-4.25
2022-12-18T02:35:11.657Z,-4.30
2022-12-18T02:37:41.871Z,-4.35
2022-12-18T02:40:09.359Z,-4.34
2022-12-18T02:42:35.845Z,-4.32
2022-12-18T02:45:02.238Z,-4.37
2022-12-18T02:47:33.596Z,-4.36
2022-12-18T02:50:03.409Z,-4.32
2022-12-18T02:52:32.807Z,-4.35
2022-12-18T02:55:17.637Z,-4.41
2022-12-18T02:57:51.220Z,-4.42
2022-12-18T03:00:22.777Z,-4.43
2022-12-18T03:03:01.987Z,-4.25
2022-12-18T03:05:39.574Z,-4.26
2022-12-18T03:08:18.943Z,-4.35
2022-12-18T03:10:55.589Z,-4.37
2022-12-18T03:13:29.401Z,-4.42
2022-12-18T03:15:58.353Z,-4.44
2022-12-18T03:18:31.212Z,-4.45
2022-12-18T03:21:01.171Z,-4.39
2022-12-18T03:23:32.340Z,-4.40
2022-12-18T03:26:07.247Z,-4.39
2022-12-18T03:28:38.511Z,-4.37
2022-12-18T03:31:08.442Z,-4.47
2022-12-18T03:34:04.284Z,-4.36
2022-12-18T03:36:32.044Z,-4.43
2022-12-18T03:38:58.570Z,-4.43
2022-12-18T03:41:50.363Z,-4.49
2022-12-18T03:44:43.919Z,-4.45
2022-12-18T03:47:20.404Z,-4.37
2022-12-18T03:49:56.960Z,-4.36
2022-12-18T03:52:23.335Z,-4.40
2022-12-18T03:54:50.339Z,-4.37
2022-12-18T03:57:21.682Z,-4.38
2022-12-18T03:59:50.482Z,-4.39
2022-12-18T04:02:18.364Z,-4.38
2022-12-18T04:04:47.691Z,-4.46
2022-12-18T04:07:15.268Z,-4.41
2022-12-18T04:09:42.916Z,-4.40
2022-12-18T04:12:10.196Z,-4.39
2022-12-18T04:14:36.694Z,-4.43
2022-12-18T04:17:03.782Z,-4.48
2022-12-18T04:19:30.163Z,-4.51
2022-12-18T04:21:56.607Z,-4.53
2022-12-18T04:24:23.061Z,-4.56
2022-12-18T04:26:49.493Z,-4.55
2022-12-18T04:29:15.983Z,-4.58
2022-12-18T04:31:42.378Z,-4.64
2022-12-18T04:34:08.758Z,-4.60
2022-12-18T04:36:35.259Z,-4.59
2022-12-18T04:39:01.678Z,-4.60
2022-12-18T04:41:28.099Z,-4.63
2022-12-18T04:43:54.592Z,-4.62
2022-12-18T04:46:21.110Z,-4.66
2022-12-18T04:48:47.907Z,-4.63
2022-12-18T04:51:14.473Z,-4.67
2022-12-18T04:53:41.346Z,-4.63
2022-12-18T04:56:11.433Z,-4.60
2022-12-18T04:58:39.056Z,-4.65
2022-12-18T05:01:06.115Z,-4.63
2022-12-18T05:03:32.608Z,-4.59
2022-12-18T05:05:59.072Z,-4.60
2022-12-18T05:08:25.521Z,-4.55
2022-12-18T05:11:10.848Z,-4.53
2022-12-18T05:13:38.984Z,-4.54
2022-12-18T05:16:06.641Z,-4.53
2022-12-18T05:18:33.267Z,-4.58
2022-12-18T05:20:59.859Z,-4.64
2022-12-18T05:23:26.375Z,-4.46
2022-12-18T05:25:58.180Z,-4.58
2022-12-18T05:28:26.497Z,-4.58
2022-12-18T05:30:54.838Z,-4.61
2022-12-18T05:33:23.119Z,-4.72
2022-12-18T05:35:54.343Z,-4.71
2022-12-18T05:38:22.503Z,-4.76
2022-12-18T05:40:49.829Z,-4.78
2022-12-18T05:43:20.938Z,-4.78
2022-12-18T05:45:48.803Z,-4.74
2022-12-18T05:48:16.051Z,-4.75
2022-12-18T05:50:46.289Z,-4.74
2022-12-18T05:53:14.489Z,-4.67
2022-12-18T05:55:42.621Z,-4.68
2022-12-18T05:58:10.635Z,-4.67
2022-12-18T06:00:42.073Z,-4.69
2022-12-18T06:03:10.356Z,-4.77
2022-12-18T06:05:46.311Z,-4.75
2022-12-18T06:08:14.098Z,-4.75
2022-12-18T06:10:41.814Z,-4.84
2022-12-18T06:13:08.449Z,-4.78
2022-12-18T06:15:38.177Z,-4.76
2022-12-18T06:18:04.811Z,-4.76
2022-12-18T06:20:33.649Z,-4.81
2022-12-18T06:23:00.736Z,-4.78
2022-12-18T06:25:27.149Z,-4.79
2022-12-18T06:27:53.610Z,-4.71
2022-12-18T06:30:20.192Z,-4.74
2022-12-18T06:32:48.623Z,-4.75
2022-12-18T06:35:18.158Z,-4.66
2022-12-18T06:37:45.281Z,-4.65
2022-12-18T06:40:11.668Z,-4.70
2022-12-18T06:42:38.114Z,-4.72
2022-12-18T06:45:04.886Z,-4.74
2022-12-18T06:47:31.249Z,-4.64
2022-12-18T06:49:57.662Z,-4.75
2022-12-18T06:52:24.060Z,-4.73
2022-12-18T06:54:50.585Z,-4.71
2022-12-18T06:57:16.972Z,-4.73
2022-12-18T06:59:43.365Z,-4.74
2022-12-18T07:02:13.513Z,-4.76
2022-12-18T07:04:39.978Z,-4.76
2022-12-18T07:07:06.432Z,-4.74
2022-12-18T07:09:32.830Z,-4.78
2022-12-18T07:11:59.248Z,-4.75
2022-12-18T07:14:26.019Z,-4.75
2022-12-18T07:16:52.456Z,-4.80
2022-12-18T07:19:18.877Z,-4.75
2022-12-18T07:21:45.264Z,-4.78
2022-12-18T07:24:11.664Z,-4.78
2022-12-18T07:26:38.224Z,-4.78
2022-12-18T07:29:04.615Z,-4.79
2022-12-18T07:31:31.168Z,-4.84
2022-12-18T07:33:57.843Z,-4.79
2022-12-18T07:36:24.420Z,-4.79
2022-12-18T07:38:52.405Z,-4.77
2022-12-18T07:41:19.719Z,-4.82
2022-12-18T07:43:46.543Z,-4.79
2022-12-18T07:46:16.541Z,-4.86
2022-12-18T07:48:44.301Z,-4.93
2022-12-18T07:51:13.403Z,-4.85
2022-12-18T07:53:40.961Z,-4.85
2022-12-18T07:58:57.497Z,-4.76
2022-12-18T08:01:24.187Z,-4.85
2022-12-18T08:03:52.314Z,-4.85
2022-12-18T08:06:19.616Z,-4.90
2022-12-18T08:08:49.756Z,-4.88
2022-12-18T08:11:16.735Z,-4.91
2022-12-18T08:13:43.421Z,-4.82
2022-12-18T08:16:10.065Z,-4.87
2022-12-18T08:18:38.343Z,-4.74
2022-12-18T08:21:21.364Z,-4.79
2022-12-18T08:23:48.796Z,-4.75
2022-12-18T08:26:16.119Z,-4.68
2022-12-18T08:28:42.838Z,-4.76
2022-12-18T08:31:09.931Z,-4.76
2022-12-18T08:33:38.837Z,-4.73
2022-12-18T08:36:06.428Z,-4.64
2022-12-18T08:38:33.872Z,-4.64
2022-12-18T08:41:10.074Z,-4.61
2022-12-18T08:43:55.147Z,-4.49
2022-12-18T08:46:23.570Z,-4.53
2022-12-18T08:48:52.462Z,-4.50
2022-12-18T08:51:19.505Z,-4.45
2022-12-18T08:53:46.748Z,-4.48
2022-12-18T08:56:14.919Z,-4.48
2022-12-18T08:58:42.393Z,-4.43
2022-12-18T09:01:11.441Z,-4.37
2022-12-18T09:03:39.068Z,-4.36
2022-12-18T09:06:06.879Z,-4.36
2022-12-18T09:08:33.444Z,-4.39
2022-12-18T09:10:59.829Z,-4.37
2022-12-18T09:13:26.225Z,-4.38
2022-12-18T09:15:54.750Z,-4.37
2022-12-18T09:18:22.365Z,-4.32
2022-12-18T09:20:48.849Z,-4.36
2022-12-18T09:23:15.493Z,-4.27
2022-12-18T09:25:41.946Z,-4.24
2022-12-18T09:28:14.178Z,-4.20
2022-12-18T09:30:45.604Z,-4.20
2022-12-18T09:33:12.324Z,-4.13
2022-12-18T09:35:41.473Z,-4.10
2022-12-18T09:38:12.164Z,-4.09
2022-12-18T09:40:58.610Z,-4.13
2022-12-18T09:43:34.809Z,-4.13
2022-12-18T09:46:08.660Z,-4.01
2022-12-18T09:48:43.855Z,-4.02
2022-12-18T09:51:17.725Z,-4.01
2022-12-18T09:53:59.342Z,-4.03
2022-12-18T09:56:29.307Z,-3.87
2022-12-18T09:59:00.703Z,-3.92
2022-12-18T10:01:36.344Z,-3.93
2022-12-18T10:04:10.368Z,-3.93
2022-12-18T10:06:44.939Z,-3.92
2022-12-18T10:09:26.657Z,-3.94
2022-12-18T10:12:22.334Z,-3.89
2022-12-18T10:15:24.635Z,-3.84
2022-12-18T10:18:23.456Z,-3.86
2022-12-18T10:20:54.758Z,-3.91
2022-12-18T10:23:23.783Z,-3.80
2022-12-18T10:25:54.321Z,-3.83
2022-12-18T10:28:21.589Z,-3.73
2022-12-18T10:30:48.071Z,-3.74
2022-12-18T10:33:23.475Z,-3.83
2022-12-18T10:35:53.412Z,-3.80
2022-12-18T10:38:20.134Z,-3.78
2022-12-18T10:40:55.955Z,-3.74
2022-12-18T10:43:26.654Z,-3.77
2022-12-18T10:46:11.078Z,-3.68
2022-12-18T10:48:58.659Z,-3.67
2022-12-18T10:51:32.380Z,-3.62
2022-12-18T10:54:04.328Z,-3.57
2022-12-18T10:56:36.132Z,-3.58
2022-12-18T10:59:06.000Z,-3.58
2022-12-18T11:01:59.077Z,-3.51
2022-12-18T11:04:28.744Z,-3.57
2022-12-18T11:07:09.761Z,-3.55
2022-12-18T11:09:38.577Z,-3.48
2022-12-18T11:12:13.820Z,-3.45
2022-12-18T11:14:48.251Z,-3.43
2022-12-18T11:17:36.497Z,-3.42
2022-12-18T11:20:07.870Z,-3.39
2022-12-18T11:22:38.039Z,-3.38
2022-12-18T11:28:26.561Z,-3.37
2022-12-18T11:31:22.585Z,-3.35
2022-12-18T11:34:34.349Z,-3.40
2022-12-18T11:37:02.009Z,-3.35
2022-12-18T11:39:31.470Z,-3.33
2022-12-18T11:42:11.024Z,-3.26
2022-12-18T11:45:14.131Z,-3.26
2022-12-18T11:47:46.854Z,-3.24
2022-12-18T11:50:35.669Z,-3.27
2022-12-18T11:53:06.154Z,-3.23
2022-12-18T11:55:59.939Z,-3.28
2022-12-18T11:58:57.165Z,-3.22
2022-12-18T12:01:56.303Z,-3.13
2022-12-18T12:05:05.082Z,-3.12
2022-12-18T12:07:49.476Z,-3.08
2022-12-18T12:10:29.482Z,-3.12
2022-12-18T12:20:04.784Z,-2.96
2022-12-18T12:22:45.076Z,-2.95
2022-12-18T12:25:31.228Z,-2.93
2022-12-18T12:28:33.219Z,-3.04
2022-12-18T12:31:35.349Z,-3.00
2022-12-18T12:34:19.962Z,-3.01
2022-12-18T12:37:31.716Z,-3.00
2022-12-18T12:40:07.290Z,-2.93
2022-12-18T12:43:22.068Z,-2.99
2022-12-18T12:45:55.050Z,-2.92
2022-12-18T12:48:51.476Z,-2.95
2022-12-18T12:51:26.363Z,-2.97
2022-12-18T12:54:01.908Z,-3.07
2022-12-18T12:56:57.687Z,-3.00
2022-12-18T12:59:58.808Z,-2.99
2022-12-18T13:02:28.289Z,-2.98
2022-12-18T13:05:07.552Z,-3.04
2022-12-18T13:07:43.204Z,-2.99
2022-12-18T13:10:34.834Z,-3.01
2022-12-18T13:13:23.133Z,-2.98
2022-12-18T13:16:17.462Z,-2.99
2022-12-18T13:18:53.979Z,-2.93
2022-12-18T13:21:37.146Z,-2.89
2022-12-18T13:24:33.071Z,-2.88
2022-12-18T13:27:41.175Z,-2.85
2022-12-18T13:30:42.324Z,-2.86
2022-12-18T13:33:43.126Z,-2.88
2022-12-18T13:36:37.764Z,-2.88
2022-12-18T13:39:23.261Z,-2.96
2022-12-18T13:45:39.949Z,-3.07
2022-12-18T13:48:17.082Z,-3.08
2022-12-18T13:50:43.748Z,-3.08
2022-12-18T13:53:23.112Z,-3.08
2022-12-18T13:55:51.195Z,-3.08
2022-12-18T13:58:17.925Z,-3.09
2022-12-18T14:00:45.194Z,-3.03
2022-12-18T14:03:27.140Z,-3.05
2022-12-18T14:06:09.074Z,-2.99
2022-12-18T14:08:42.013Z,-3.01
2022-12-18T14:11:21.453Z,-3.02
2022-12-18T14:13:48.659Z,-2.99
2022-12-18T14:16:17.635Z,-2.97
2022-12-18T14:18:53.166Z,-3.00
2022-12-18T14:21:24.173Z,-2.99
2022-12-18T14:24:06.395Z,-2.97
2022-12-18T14:26:34.194Z,-2.98
2022-12-18T14:29:24.112Z,-2.94
2022-12-18T14:32:08.439Z,-2.87
2022-12-18T14:34:38.386Z,-2.88
2022-12-18T14:37:05.084Z,-2.88
2022-12-18T14:39:31.655Z,-2.85
2022-12-18T14:41:58.140Z,-2.86
2022-12-18T14:44:24.600Z,-2.85
2022-12-18T14:46:52.075Z,-2.86
2022-12-18T14:49:24.526Z,-2.83
2022-12-18T14:51:54.420Z,-2.80
2022-12-18T14:54:22.575Z,-2.83
2022-12-18T14:56:52.904Z,-2.81
2022-12-18T14:59:25.257Z,-2.81
2022-12-18T15:02:11.874Z,-2.72
2022-12-18T15:04:41.664Z,-2.75
2022-12-18T15:07:14.815Z,-2.64
2022-12-18T15:09:43.946Z,-2.71
2022-12-18T15:13:12.104Z,-2.70
2022-12-18T15:15:38.827Z,-2.73
2022-12-18T15:18:18.478Z,-2.76
2022-12-18T15:20:57.103Z,-2.78
2022-12-18T15:23:26.393Z,-2.81
2022-12-18T15:26:01.452Z,-2.85
2022-12-18T15:28:35.432Z,-2.81
2022-12-18T15:31:04.841Z,-2.85
2022-12-18T15:33:37.050Z,-2.82
2022-12-18T15:36:06.498Z,-2.81
2022-12-18T15:38:33.099Z,-2.89
2022-12-18T15:40:59.714Z,-2.84
2022-12-18T15:43:36.109Z,-2.84
2022-12-18T15:46:04.591Z,-2.86
2022-12-18T15:48:32.929Z,-2.83
2022-12-18T15:50:59.523Z,-2.92
2022-12-18T15:53:31.195Z,-2.84
2022-12-18T15:56:17.231Z,-2.84
2022-12-18T15:58:43.739Z,-2.88
2022-12-18T16:01:11.688Z,-2.91
2022-12-18T16:03:38.804Z,-2.88
2022-12-18T16:06:05.763Z,-2.89
2022-12-18T16:08:32.418Z,-2.92
2022-12-18T16:10:59.263Z,-2.93
2022-12-18T16:13:25.675Z,-2.88
2022-12-18T16:15:52.191Z,-2.87
2022-12-18T16:18:18.661Z,-2.77
2022-12-18T16:20:45.137Z,-2.80
2022-12-18T16:23:11.515Z,-2.83
2022-12-18T16:25:37.960Z,-2.87
2022-12-18T16:28:04.565Z,-2.83
2022-12-18T16:30:38.099Z,-2.83
2022-12-18T16:33:05.589Z,-2.83
2022-12-18T16:35:33.950Z,-2.89
2022-12-18T16:38:00.584Z,-2.90
2022-12-18T16:40:27.083Z,-2.86
2022-12-18T16:42:53.658Z,-2.85
2022-12-18T16:45:20.227Z,-2.91
2022-12-18T16:47:46.817Z,-2.95
2022-12-18T16:50:13.329Z,-2.93
2022-12-18T16:52:40.039Z,-2.91
2022-12-18T16:55:06.772Z,-2.94
2022-12-18T16:57:33.819Z,-2.94
2022-12-18T17:00:05.182Z,-2.92
2022-12-18T17:02:32.402Z,-2.97
2022-12-18T17:04:59.506Z,-2.93
2022-12-18T17:07:27.080Z,-2.92
2022-12-18T17:09:54.820Z,-2.92
2022-12-18T17:12:21.661Z,-2.83
2022-12-18T17:14:48.195Z,-2.88
2022-12-18T17:17:23.791Z,-2.85
2022-12-18T17:19:51.432Z,-2.87
2022-12-18T17:22:17.899Z,-2.89
2022-12-18T17:24:44.362Z,-2.95
2022-12-18T17:27:10.818Z,-2.95
2022-12-18T17:29:40.103Z,-2.93
2022-12-18T17:32:11.729Z,-2.90
2022-12-18T17:34:38.479Z,-2.95
2022-12-18T17:37:04.907Z,-3.00
2022-12-18T17:39:31.318Z,-3.03
2022-12-18T17:41:59.340Z,-2.97
2022-12-18T17:44:25.896Z,-2.96
2022-12-18T17:46:52.367Z,-3.00
2022-12-18T17:49:18.812Z,-3.10
2022-12-18T17:51:45.226Z,-3.10
2022-12-18T17:54:11.736Z,-3.09
2022-12-18T17:56:39.101Z,-3.11
2022-12-18T17:59:06.865Z,-3.19
2022-12-18T18:01:33.471Z,-3.19
2022-12-18T18:04:00.713Z,-3.17
2022-12-18T18:06:27.730Z,-3.16
2022-12-18T18:08:54.240Z,-3.17
2022-12-18T18:11:41.119Z,-3.21
2022-12-18T18:14:13.300Z,-3.19
2022-12-18T18:16:46.154Z,-3.22
2022-12-18T18:19:15.971Z,-3.20
2022-12-18T18:21:44.675Z,-3.11
2022-12-18T18:24:14.213Z,-3.10
2022-12-18T18:26:41.651Z,-3.09
2022-12-18T18:29:09.181Z,-3.06
2022-12-18T18:31:40.953Z,-3.04
2022-12-18T18:34:08.520Z,-3.07
2022-12-18T18:36:34.984Z,-3.13
2022-12-18T18:39:02.066Z,-3.07
2022-12-18T18:41:30.379Z,-3.07
2022-12-18T18:43:58.344Z,-3.09
2022-12-18T18:46:25.994Z,-3.07
2022-12-18T18:48:52.765Z,-3.09
2022-12-18T18:51:21.513Z,-3.16
2022-12-18T18:53:49.572Z,-3.16
2022-12-18T18:59:05.722Z,-3.17
2022-12-18T19:01:32.832Z,-3.21
2022-12-18T19:04:00.690Z,-3.26
2022-12-18T19:06:28.398Z,-3.25
2022-12-18T19:08:56.291Z,-3.09
2022-12-18T19:11:42.431Z,-3.15
2022-12-18T19:14:11.092Z,-3.15
2022-12-18T19:16:37.881Z,-3.14
2022-12-18T19:19:05.837Z,-3.12
2022-12-18T19:21:34.134Z,-3.15
2022-12-18T19:24:02.650Z,-3.20
2022-12-18T19:26:29.573Z,-3.18
2022-12-18T19:29:04.661Z,-3.14
2022-12-18T19:31:35.550Z,-3.18
2022-12-18T19:34:05.349Z,-3.18
2022-12-18T19:36:32.564Z,-3.23
2022-12-18T19:41:37.737Z,-3.21
2022-12-18T19:44:07.528Z,-3.21
2022-12-18T19:46:34.543Z,-3.28
2022-12-18T19:49:00.978Z,-3.24
2022-12-18T19:51:29.705Z,-3.21
2022-12-18T19:53:59.307Z,-3.21
2022-12-18T19:56:29.856Z,-3.22
2022-12-18T19:58:56.336Z,-3.22
2022-12-18T20:01:24.645Z,-3.18
2022-12-18T20:03:53.652Z,-3.14
2022-12-18T20:06:34.138Z,-3.18
2022-12-18T20:09:04.114Z,-3.09
2022-12-18T20:11:31.907Z,-3.19
2022-12-18T20:13:58.370Z,-3.14
2022-12-18T20:16:25.040Z,-3.20
2022-12-18T20:18:52.301Z,-3.28
2022-12-18T20:21:18.931Z,-3.23
2022-12-18T20:23:45.882Z,-3.15
2022-12-18T20:26:12.865Z,-3.30
2022-12-18T20:28:39.370Z,-3.30
2022-12-18T20:31:08.463Z,-3.33
2022-12-18T20:33:37.686Z,-3.33
2022-12-18T20:36:06.816Z,-3.30
2022-12-18T20:38:35.381Z,-3.34
2022-12-18T20:41:07.680Z,-3.24
2022-12-18T20:43:34.218Z,-3.28
2022-12-18T20:46:06.161Z,-3.26
2022-12-18T20:48:33.460Z,-3.28
2022-12-18T20:51:03.621Z,-3.27
2022-12-18T20:53:30.656Z,-3.26
2022-12-18T20:55:57.268Z,-3.21
2022-12-18T20:58:24.051Z,-3.28
2022-12-18T21:00:51.536Z,-3.28
2022-12-18T21:03:18.790Z,-3.29
2022-12-18T21:05:45.376Z,-3.26
2022-12-18T21:08:11.921Z,-3.28
2022-12-18T21:10:42.336Z,-3.23
2022-12-18T21:13:09.513Z,-3.20
2022-12-18T21:15:37.771Z,-3.23
2022-12-18T21:18:04.443Z,-3.23
2022-12-18T21:20:31.076Z,-3.18
2022-12-18T21:23:08.563Z,-3.34
2022-12-18T21:25:43.372Z,-3.39
2022-12-18T21:28:09.926Z,-3.36
2022-12-18T21:30:36.554Z,-3.38
2022-12-18T21:33:03.205Z,-3.28
2022-12-18T21:35:29.794Z,-3.33
2022-12-18T21:37:58.640Z,-3.34
2022-12-18T21:40:25.153Z,-3.32
2022-12-18T21:43:10.279Z,-3.33
2022-12-18T21:45:39.647Z,-3.36
2022-12-18T21:48:06.074Z,-3.37
2022-12-18T21:50:32.486Z,-3.37
2022-12-18T21:52:58.853Z,-3.37
2022-12-18T21:55:25.585Z,-3.36
2022-12-18T21:57:53.749Z,-3.32
2022-12-18T22:00:20.257Z,-3.32
2022-12-18T22:02:48.346Z,-3.33
2022-12-18T22:05:28.748Z,-3.37
2022-12-18T22:07:55.119Z,-3.38
2022-12-18T22:10:21.516Z,-3.43
2022-12-18T22:12:48.920Z,-3.46
2022-12-18T22:15:21.516Z,-3.29
2022-12-18T22:17:53.450Z,-3.42
2022-12-18T22:20:26.472Z,-3.45
2022-12-18T22:22:53.373Z,-3.40
2022-12-18T22:25:19.828Z,-3.40
2022-12-18T22:28:06.233Z,-3.37
2022-12-18T22:30:32.846Z,-3.39
2022-12-18T22:32:59.559Z,-3.38
2022-12-18T22:35:25.965Z,-3.40
2022-12-18T22:37:52.496Z,-3.40
2022-12-18T22:40:25.383Z,-3.40
2022-12-18T22:42:55.867Z,-3.37
2022-12-18T22:45:22.301Z,-3.37
2022-12-18T22:47:48.769Z,-3.43
2022-12-18T22:50:15.517Z,-3.40
2022-12-18T22:52:42.329Z,-3.42
2022-12-18T22:55:08.975Z,-3.40
2022-12-18T22:57:35.480Z,-3.43
2022-12-18T23:00:04.905Z,-3.43
2022-12-18T23:02:31.483Z,-3.44
2022-12-18T23:04:58.024Z,-3.43
2022-12-18T23:07:24.390Z,-3.45
2022-12-18T23:09:50.863Z,-3.42
2022-12-18T23:12:24.850Z,-3.47
2022-12-18T23:14:52.715Z,-3.47
2022-12-18T23:17:19.173Z,-3.48
2022-12-18T23:19:49.029Z,-3.47
2022-12-18T23:22:16.613Z,-3.51
2022-12-18T23:24:43.007Z,-3.46
2022-12-18T23:27:11.597Z,-3.50
2022-12-18T23:29:39.078Z,-3.49
2022-12-18T23:32:05.488Z,-3.48
2022-12-18T23:34:32.045Z,-3.53
2022-12-18T23:36:58.615Z,-3.48
2022-12-18T23:39:29.800Z,-3.47
2022-12-18T23:41:59.492Z,-3.45
2022-12-18T23:44:26.104Z,-3.43
2022-12-18T23:46:52.716Z,-3.41
2022-12-18T23:49:19.192Z,-3.47
2022-12-18T23:51:45.597Z,-3.33
2022-12-18T23:54:12.041Z,-3.40
2022-12-18T23:56:38.472Z,-3.46
2022-12-18T23:59:05.022Z,-3.37
